createdAt,value
2024-02-17T00:02:16.948Z,2.80
2024-02-17T00:07:20.658Z,2.80
2024-02-17T00:12:24.606Z,2.80
2024-02-17T00:17:28.087Z,2.70
2024-02-17T00:22:31.618Z,2.70
2024-02-17T00:27:35.107Z,2.60
2024-02-17T00:32:38.574Z,2.60
2024-02-17T00:37:43.491Z,2.60
2024-02-17T00:42:47.188Z,2.50
2024-02-17T00:47:51.845Z,2.50
2024-02-17T00:52:57.573Z,2.50
2024-02-17T00:58:02.453Z,2.50
2024-02-17T01:03:06.225Z,2.40
2024-02-17T01:08:11.445Z,2.40
2024-02-17T01:13:14.925Z,2.40
2024-02-17T01:18:18.703Z,2.40
2024-02-17T01:23:22.370Z,2.40
2024-02-17T01:28:25.669Z,2.40
2024-02-17T01:33:29.153Z,2.30
2024-02-17T01:38:32.718Z,2.30
2024-02-17T01:43:36.285Z,2.20
2024-02-17T01:48:40.297Z,2.20
2024-02-17T01:53:44.209Z,2.20
2024-02-17T01:58:49.075Z,2.10
2024-02-17T02:03:52.716Z,2.00
2024-02-17T02:08:56.627Z,2.00
2024-02-17T02:14:17.377Z,2.00
2024-02-17T02:19:21.011Z,1.90
2024-02-17T02:24:25.784Z,1.90
2024-02-17T02:29:29.281Z,1.80
2024-02-17T02:34:32.798Z,1.80
2024-02-17T02:39:37.087Z,1.80
2024-02-17T02:44:40.728Z,1.70
2024-02-17T02:49:44.341Z,1.70
2024-02-17T02:54:48.764Z,1.70
2024-02-17T02:59:52.394Z,1.70
2024-02-17T03:04:57.157Z,1.60
2024-02-17T03:10:00.680Z,1.60
2024-02-17T03:15:04.905Z,1.60
2024-02-17T03:20:08.876Z,1.50
2024-02-17T03:25:13.399Z,1.40
2024-02-17T03:30:17.085Z,1.40
2024-02-17T03:35:20.416Z,1.40
2024-02-17T03:40:23.985Z,1.30
2024-02-17T03:45:27.478Z,1.30
2024-02-17T03:50:31.098Z,1.30
2024-02-17T03:55:34.559Z,1.20
2024-02-17T04:00:38.059Z,1.20
2024-02-17T04:05:41.713Z,1.20
2024-02-17T04:10:45.311Z,1.20
2024-02-17T04:15:48.944Z,1.20
2024-02-17T04:20:52.829Z,1.20
2024-02-17T04:25:57.728Z,1.10
2024-02-17T04:31:01.376Z,1.20
2024-02-17T04:36:09.223Z,1.10
2024-02-17T04:41:12.692Z,1.20
2024-02-17T04:46:16.402Z,1.20
2024-02-17T04:51:19.930Z,1.20
2024-02-17T04:56:23.324Z,1.20
2024-02-17T05:01:26.953Z,1.30
2024-02-17T05:06:30.503Z,1.30
2024-02-17T05:11:33.992Z,1.30
2024-02-17T05:16:37.501Z,1.30
2024-02-17T05:21:44.904Z,1.20
2024-02-17T05:26:48.590Z,1.20
2024-02-17T05:31:52.202Z,1.10
2024-02-17T05:36:57.931Z,1.10
2024-02-17T05:42:02.480Z,1.00
2024-02-17T05:47:06.150Z,1.00
2024-02-17T05:52:09.553Z,1.00
2024-02-17T05:57:13.330Z,0.90
2024-02-17T06:02:18.017Z,0.90
2024-02-17T06:07:22.459Z,0.90
2024-02-17T06:12:25.985Z,0.90
2024-02-17T06:17:29.714Z,0.90
2024-02-17T06:22:33.334Z,0.90
2024-02-17T06:27:36.742Z,1.00
2024-02-17T06:32:40.299Z,1.10
2024-02-17T06:37:43.634Z,1.20
2024-02-17T06:42:47.176Z,1.40
2024-02-17T06:47:51.689Z,1.50
2024-02-17T06:52:54.901Z,1.70
2024-02-17T06:57:58.398Z,2.00
2024-02-17T07:03:05.083Z,2.20
2024-02-17T07:08:17.977Z,2.40
2024-02-17T07:13:21.376Z,2.70
2024-02-17T07:18:24.882Z,2.90
2024-02-17T07:23:31.781Z,3.10
2024-02-17T07:28:38.254Z,3.30
2024-02-17T07:33:41.957Z,3.50
2024-02-17T07:38:45.493Z,3.80
2024-02-17T07:43:49.956Z,4.20
2024-02-17T07:48:53.997Z,4.80
2024-02-17T07:53:58.537Z,5.70
2024-02-17T07:59:03.131Z,6.70
2024-02-17T08:04:06.714Z,7.50
2024-02-17T08:09:10.277Z,8.20
2024-02-17T08:14:17.014Z,8.70
2024-02-17T08:19:20.877Z,9.20
2024-02-17T08:24:24.522Z,9.70
2024-02-17T08:29:27.999Z,10.20
2024-02-17T08:34:31.606Z,10.80
2024-02-17T08:39:35.218Z,11.20
2024-02-17T08:44:39.230Z,11.50
2024-02-17T08:49:42.817Z,11.80
2024-02-17T08:54:47.433Z,12.00
2024-02-17T08:59:51.222Z,12.10
2024-02-17T09:04:54.748Z,12.40
2024-02-17T09:09:58.204Z,12.70
2024-02-17T09:15:01.462Z,13.10
2024-02-17T09:20:05.975Z,13.30
2024-02-17T09:25:09.884Z,13.60
2024-02-17T09:30:14.309Z,14.00
2024-02-17T09:35:19.300Z,14.20
2024-02-17T09:40:23.033Z,14.40
2024-02-17T09:45:28.233Z,14.60
2024-02-17T09:50:32.814Z,15.10
2024-02-17T09:55:37.309Z,15.30
2024-02-17T10:00:40.757Z,15.40
2024-02-17T10:05:44.911Z,15.20
2024-02-17T10:10:48.799Z,15.10
2024-02-17T10:15:52.588Z,15.10
2024-02-17T10:20:57.868Z,15.20
2024-02-17T10:26:02.111Z,15.60
2024-02-17T10:31:05.753Z,16.10
2024-02-17T10:36:09.812Z,16.50
2024-02-17T10:41:13.975Z,16.40
2024-02-17T10:46:27.685Z,16.30
2024-02-17T10:51:32.520Z,16.70
2024-02-17T10:56:36.279Z,16.90
2024-02-17T11:01:39.841Z,16.80
2024-02-17T11:06:44.207Z,16.90
2024-02-17T11:11:47.770Z,17.00
2024-02-17T11:16:52.756Z,17.00
2024-02-17T11:21:56.904Z,16.80
2024-02-17T11:27:00.492Z,16.70
2024-02-17T11:32:04.693Z,16.50
2024-02-17T11:37:09.622Z,16.70
2024-02-17T11:42:14.425Z,16.90
2024-02-17T11:47:18.052Z,17.20
2024-02-17T11:52:21.904Z,17.20
2024-02-17T11:57:27.284Z,17.20
2024-02-17T12:02:30.836Z,17.20
2024-02-17T12:07:34.399Z,17.40
2024-02-17T12:12:40.475Z,17.40
2024-02-17T12:17:45.297Z,17.20
2024-02-17T12:22:52.554Z,17.10
2024-02-17T12:27:56.328Z,17.10
2024-02-17T12:33:08.216Z,17.10
2024-02-17T12:38:11.797Z,16.90
2024-02-17T12:43:23.355Z,16.60
2024-02-17T12:48:27.481Z,16.20
2024-02-17T12:53:34.415Z,15.80
2024-02-17T12:58:37.829Z,15.40
2024-02-17T13:03:42.035Z,15.30
2024-02-17T13:08:46.331Z,15.20
2024-02-17T13:13:51.130Z,15.10
2024-02-17T13:18:58.289Z,14.90
2024-02-17T13:24:03.559Z,14.80
2024-02-17T13:29:07.160Z,14.60
2024-02-17T13:34:11.214Z,14.30
2024-02-17T13:39:14.671Z,13.90
2024-02-17T13:44:18.631Z,13.50
2024-02-17T13:49:22.416Z,13.20
2024-02-17T13:54:27.470Z,12.90
2024-02-17T13:59:35.933Z,12.60
2024-02-17T14:04:39.948Z,12.20
2024-02-17T14:09:43.407Z,11.70
2024-02-17T14:14:47.869Z,11.50
2024-02-17T14:19:51.215Z,11.40
2024-02-17T14:24:54.660Z,11.20
2024-02-17T14:29:58.225Z,11.20
2024-02-17T14:35:01.782Z,11.10
2024-02-17T14:40:05.897Z,11.00
2024-02-17T14:45:10.741Z,10.90
2024-02-17T14:50:14.517Z,10.80
2024-02-17T14:55:18.145Z,10.70
2024-02-17T15:00:21.736Z,10.70
2024-02-17T15:05:25.598Z,10.70
2024-02-17T15:10:29.135Z,10.70
2024-02-17T15:15:32.870Z,10.70
2024-02-17T15:20:36.999Z,10.60
2024-02-17T15:25:41.683Z,10.50
2024-02-17T15:30:47.037Z,10.40
2024-02-17T15:35:51.473Z,10.30
2024-02-17T15:40:55.967Z,10.20
2024-02-17T15:46:01.229Z,10.10
2024-02-17T15:51:06.621Z,10.00
2024-02-17T15:56:17.536Z,9.80
2024-02-17T16:01:21.560Z,9.70
2024-02-17T16:06:25.281Z,9.70
2024-02-17T16:11:28.761Z,9.60
2024-02-17T16:16:32.172Z,9.50
2024-02-17T16:21:36.560Z,9.40
2024-02-17T16:26:40.728Z,9.30
2024-02-17T16:31:44.454Z,9.30
2024-02-17T16:36:47.846Z,9.20
2024-02-17T16:41:52.260Z,9.10
2024-02-17T16:46:55.708Z,8.90
2024-02-17T16:51:59.432Z,8.80
2024-02-17T16:57:08.300Z,8.70
2024-02-17T17:02:13.004Z,8.60
2024-02-17T17:07:18.458Z,8.60
2024-02-17T17:12:22.761Z,8.50
2024-02-17T17:17:26.447Z,8.40
2024-02-17T17:22:39.796Z,8.40
2024-02-17T17:27:50.447Z,8.30
2024-02-17T17:32:53.887Z,8.30
2024-02-17T17:37:57.389Z,8.30
2024-02-17T17:43:06.639Z,8.20
2024-02-17T17:48:12.271Z,8.30
2024-02-17T17:53:16.611Z,8.40
2024-02-17T17:58:20.649Z,8.40
2024-02-17T18:03:24.399Z,8.40
2024-02-17T18:08:29.866Z,8.30
2024-02-17T18:13:35.135Z,8.30
2024-02-17T18:18:39.949Z,8.30
2024-02-17T18:23:43.599Z,8.30
2024-02-17T18:28:47.006Z,8.20
2024-02-17T18:33:50.999Z,8.20
2024-02-17T18:38:54.536Z,8.10
2024-02-17T18:43:58.367Z,8.10
2024-02-17T18:49:01.987Z,8.10
2024-02-17T18:54:07.201Z,8.00
2024-02-17T18:59:12.351Z,7.90
2024-02-17T19:04:16.163Z,8.00
2024-02-17T19:09:19.775Z,8.20
2024-02-17T19:14:24.203Z,8.40
2024-02-17T19:19:27.571Z,8.60
2024-02-17T19:24:31.529Z,8.60
2024-02-17T19:29:35.024Z,8.60
2024-02-17T19:34:38.863Z,8.60
2024-02-17T19:39:42.608Z,8.50
2024-02-17T19:44:46.140Z,8.40
2024-02-17T19:49:50.346Z,8.40
2024-02-17T19:54:53.961Z,8.30
2024-02-17T19:59:57.358Z,8.40
2024-02-17T20:05:01.651Z,8.40
2024-02-17T20:10:07.640Z,8.60
2024-02-17T20:15:14.100Z,8.80
2024-02-17T20:20:19.976Z,9.10
2024-02-17T20:25:24.790Z,9.30
2024-02-17T20:30:28.274Z,9.40
2024-02-17T20:35:31.704Z,9.30
2024-02-17T20:40:36.010Z,9.20
2024-02-17T20:45:39.286Z,9.20
2024-02-17T20:50:43.672Z,9.10
2024-02-17T20:55:47.469Z,9.00
2024-02-17T21:00:51.209Z,8.90
2024-02-17T21:05:56.951Z,8.80
2024-02-17T21:11:00.896Z,8.60
2024-02-17T21:16:04.889Z,8.40
2024-02-17T21:21:09.154Z,8.30
2024-02-17T21:26:12.616Z,8.10
2024-02-17T21:31:22.353Z,7.90
2024-02-17T21:36:27.469Z,7.80
2024-02-17T21:41:31.017Z,7.70
2024-02-17T21:46:35.965Z,7.50
2024-02-17T21:51:39.674Z,7.40
2024-02-17T21:56:43.073Z,7.20
2024-02-17T22:01:55.203Z,7.00
2024-02-17T22:07:05.565Z,6.90
2024-02-17T22:12:09.082Z,6.70
2024-02-17T22:17:12.459Z,6.60
2024-02-17T22:22:15.936Z,6.60
2024-02-17T22:27:19.780Z,6.90
2024-02-17T22:32:23.319Z,7.20
2024-02-17T22:37:26.689Z,7.50
2024-02-17T22:42:30.135Z,7.80
2024-02-17T22:47:33.659Z,8.00
2024-02-17T22:52:37.544Z,8.10
2024-02-17T22:57:41.512Z,8.20
2024-02-17T23:02:45.083Z,8.30
2024-02-17T23:07:49.290Z,8.50
2024-02-17T23:12:52.908Z,8.60
2024-02-17T23:17:56.697Z,8.70
2024-02-17T23:23:01.167Z,8.70
2024-02-17T23:28:05.311Z,8.70
2024-02-17T23:33:09.107Z,8.70
2024-02-17T23:38:12.815Z,8.70
2024-02-17T23:43:16.175Z,8.60
2024-02-17T23:48:19.705Z,8.50
2024-02-17T23:53:23.164Z,8.50
2024-02-17T23:58:27.189Z,8.40
